sensor_id;sensor_type;location;lat;lon;timestamp;temperature;humidity
52543;DHT22;38449;52.696;6.186;2023-01-30T00:00:33;6.50;99.90
52543;DHT22;38449;52.696;6.186;2023-01-30T00:02:59;6.50;99.90
52543;DHT22;38449;52.696;6.186;2023-01-30T00:05:24;6.50;99.90
52543;DHT22;38449;52.696;6.186;2023-01-30T00:07:50;6.50;99.90
52543;DHT22;38449;52.696;6.186;2023-01-30T00:10:16;6.50;99.90
52543;DHT22;38449;52.696;6.186;2023-01-30T00:12:42;6.50;99.90
52543;DHT22;38449;52.696;6.186;2023-01-30T00:15:07;6.50;99.90
52543;DHT22;38449;52.696;6.186;2023-01-30T00:17:34;6.50;99.90
52543;DHT22;38449;52.696;6.186;2023-01-30T00:20:00;6.50;99.90
52543;DHT22;38449;52.696;6.186;2023-01-30T00:22:25;6.50;99.90
52543;DHT22;38449;52.696;6.186;2023-01-30T00:24:51;6.50;99.90
52543;DHT22;38449;52.696;6.186;2023-01-30T00:27:16;6.50;99.90
52543;DHT22;38449;52.696;6.186;2023-01-30T00:29:42;6.50;99.90
52543;DHT22;38449;52.696;6.186;2023-01-30T00:32:07;6.60;99.90
52543;DHT22;38449;52.696;6.186;2023-01-30T00:34:33;6.50;99.90
52543;DHT22;38449;52.696;6.186;2023-01-30T00:36:59;6.50;99.90
52543;DHT22;38449;52.696;6.186;2023-01-30T00:39:25;6.60;99.90
52543;DHT22;38449;52.696;6.186;2023-01-30T00:41:50;6.60;99.90
52543;DHT22;38449;52.696;6.186;2023-01-30T00:44:41;6.70;99.90
52543;DHT22;38449;52.696;6.186;2023-01-30T00:47:26;6.70;99.90
52543;DHT22;38449;52.696;6.186;2023-01-30T00:49:51;6.80;99.90
52543;DHT22;38449;52.696;6.186;2023-01-30T00:52:17;6.80;99.90
52543;DHT22;38449;52.696;6.186;2023-01-30T00:54:42;6.90;99.90
52543;DHT22;38449;52.696;6.186;2023-01-30T00:57:08;6.90;99.90
52543;DHT22;38449;52.696;6.186;2023-01-30T00:59:33;7.00;99.90
52543;DHT22;38449;52.696;6.186;2023-01-30T01:01:59;7.00;99.90
52543;DHT22;38449;52.696;6.186;2023-01-30T01:04:24;7.10;99.90
52543;DHT22;38449;52.696;6.186;2023-01-30T01:06:50;7.10;99.90
52543;DHT22;38449;52.696;6.186;2023-01-30T01:09:16;7.20;99.90
52543;DHT22;38449;52.696;6.186;2023-01-30T01:11:41;7.10;99.90
52543;DHT22;38449;52.696;6.186;2023-01-30T01:14:07;7.10;99.90
52543;DHT22;38449;52.696;6.186;2023-01-30T01:16:33;7.10;99.90
52543;DHT22;38449;52.696;6.186;2023-01-30T01:18:59;7.10;99.90
52543;DHT22;38449;52.696;6.186;2023-01-30T01:21:25;7.00;99.90
52543;DHT22;38449;52.696;6.186;2023-01-30T01:23:53;7.00;99.90
52543;DHT22;38449;52.696;6.186;2023-01-30T01:26:19;7.10;99.90
52543;DHT22;38449;52.696;6.186;2023-01-30T01:28:45;7.00;99.90
52543;DHT22;38449;52.696;6.186;2023-01-30T01:31:13;6.90;99.90
52543;DHT22;38449;52.696;6.186;2023-01-30T01:33:39;6.90;99.90
52543;DHT22;38449;52.696;6.186;2023-01-30T01:36:05;6.80;99.90
52543;DHT22;38449;52.696;6.186;2023-01-30T01:38:31;6.90;99.90
52543;DHT22;38449;52.696;6.186;2023-01-30T01:41:02;6.90;99.90
52543;DHT22;38449;52.696;6.186;2023-01-30T01:46:23;7.00;99.90
52543;DHT22;38449;52.696;6.186;2023-01-30T01:48:55;7.00;99.90
52543;DHT22;38449;52.696;6.186;2023-01-30T01:51:25;7.00;99.90
52543;DHT22;38449;52.696;6.186;2023-01-30T01:53:57;7.00;99.90
52543;DHT22;38449;52.696;6.186;2023-01-30T01:56:26;7.00;99.90
52543;DHT22;38449;52.696;6.186;2023-01-30T01:59:00;7.00;99.90
52543;DHT22;38449;52.696;6.186;2023-01-30T02:01:27;7.00;99.90
52543;DHT22;38449;52.696;6.186;2023-01-30T02:03:57;7.00;99.90
52543;DHT22;38449;52.696;6.186;2023-01-30T02:06:28;7.00;99.90
52543;DHT22;38449;52.696;6.186;2023-01-30T02:08:58;6.90;99.90
52543;DHT22;38449;52.696;6.186;2023-01-30T02:11:45;7.00;99.90
52543;DHT22;38449;52.696;6.186;2023-01-30T02:14:13;6.90;99.90
52543;DHT22;38449;52.696;6.186;2023-01-30T02:16:42;6.90;99.90
52543;DHT22;38449;52.696;6.186;2023-01-30T02:27:58;6.80;99.90
52543;DHT22;38449;52.696;6.186;2023-01-30T02:33:49;6.90;99.90
52543;DHT22;38449;52.696;6.186;2023-01-30T02:39:06;6.70;99.90
52543;DHT22;38449;52.696;6.186;2023-01-30T02:41:44;6.80;99.90
52543;DHT22;38449;52.696;6.186;2023-01-30T02:44:28;6.80;99.90
52543;DHT22;38449;52.696;6.186;2023-01-30T02:49:52;6.80;99.90
52543;DHT22;38449;52.696;6.186;2023-01-30T02:52:20;6.70;99.90
52543;DHT22;38449;52.696;6.186;2023-01-30T02:54:46;6.80;99.90
52543;DHT22;38449;52.696;6.186;2023-01-30T02:57:20;6.80;99.90
52543;DHT22;38449;52.696;6.186;2023-01-30T02:59:49;6.80;99.90
52543;DHT22;38449;52.696;6.186;2023-01-30T03:02:24;6.80;99.90
52543;DHT22;38449;52.696;6.186;2023-01-30T03:05:05;6.90;99.90
52543;DHT22;38449;52.696;6.186;2023-01-30T03:10:11;6.80;99.90
52543;DHT22;38449;52.696;6.186;2023-01-30T03:13:05;6.80;99.90
52543;DHT22;38449;52.696;6.186;2023-01-30T03:18:11;6.80;99.90
52543;DHT22;38449;52.696;6.186;2023-01-30T03:20:39;6.80;99.90
52543;DHT22;38449;52.696;6.186;2023-01-30T03:23:06;6.80;99.90
52543;DHT22;38449;52.696;6.186;2023-01-30T03:25:38;6.90;99.90
52543;DHT22;38449;52.696;6.186;2023-01-30T03:28:06;6.80;99.90
52543;DHT22;38449;52.696;6.186;2023-01-30T03:30:32;6.80;99.90
52543;DHT22;38449;52.696;6.186;2023-01-30T03:32:57;6.80;99.90
52543;DHT22;38449;52.696;6.186;2023-01-30T03:35:23;6.80;99.90
52543;DHT22;38449;52.696;6.186;2023-01-30T03:37:49;6.80;99.90
52543;DHT22;38449;52.696;6.186;2023-01-30T03:40:15;6.90;99.90
52543;DHT22;38449;52.696;6.186;2023-01-30T03:42:43;6.80;99.90
52543;DHT22;38449;52.696;6.186;2023-01-30T03:45:10;6.90;99.90
52543;DHT22;38449;52.696;6.186;2023-01-30T03:47:36;6.90;99.90
52543;DHT22;38449;52.696;6.186;2023-01-30T03:50:01;6.90;99.90
52543;DHT22;38449;52.696;6.186;2023-01-30T03:52:27;7.00;99.90
52543;DHT22;38449;52.696;6.186;2023-01-30T03:54:53;6.90;99.90
52543;DHT22;38449;52.696;6.186;2023-01-30T03:57:18;6.90;99.90
52543;DHT22;38449;52.696;6.186;2023-01-30T03:59:44;7.00;99.90
52543;DHT22;38449;52.696;6.186;2023-01-30T04:02:09;7.00;99.90
52543;DHT22;38449;52.696;6.186;2023-01-30T04:04:35;7.00;99.90
52543;DHT22;38449;52.696;6.186;2023-01-30T04:07:01;7.00;99.90
52543;DHT22;38449;52.696;6.186;2023-01-30T04:09:26;7.00;99.90
52543;DHT22;38449;52.696;6.186;2023-01-30T04:11:52;7.00;99.90
52543;DHT22;38449;52.696;6.186;2023-01-30T04:14:17;7.10;99.90
52543;DHT22;38449;52.696;6.186;2023-01-30T04:16:44;7.10;99.90
52543;DHT22;38449;52.696;6.186;2023-01-30T04:19:09;7.20;99.90
52543;DHT22;38449;52.696;6.186;2023-01-30T04:21:35;7.10;99.90
52543;DHT22;38449;52.696;6.186;2023-01-30T04:24:00;7.10;99.90
52543;DHT22;38449;52.696;6.186;2023-01-30T04:26:26;7.10;99.90
52543;DHT22;38449;52.696;6.186;2023-01-30T04:28:51;7.20;99.90
52543;DHT22;38449;52.696;6.186;2023-01-30T04:31:17;7.20;99.90
52543;DHT22;38449;52.696;6.186;2023-01-30T04:33:42;7.10;99.90
52543;DHT22;38449;52.696;6.186;2023-01-30T04:36:09;7.10;99.90
52543;DHT22;38449;52.696;6.186;2023-01-30T04:38:35;7.10;99.90
52543;DHT22;38449;52.696;6.186;2023-01-30T04:41:08;7.20;99.90
52543;DHT22;38449;52.696;6.186;2023-01-30T04:43:35;7.10;99.90
52543;DHT22;38449;52.696;6.186;2023-01-30T04:46:04;7.20;99.90
52543;DHT22;38449;52.696;6.186;2023-01-30T04:48:29;7.10;99.90
52543;DHT22;38449;52.696;6.186;2023-01-30T04:50:56;7.20;99.90
52543;DHT22;38449;52.696;6.186;2023-01-30T04:53:23;7.20;99.90
52543;DHT22;38449;52.696;6.186;2023-01-30T04:55:49;7.20;99.90
52543;DHT22;38449;52.696;6.186;2023-01-30T04:58:15;7.10;99.90
52543;DHT22;38449;52.696;6.186;2023-01-30T05:00:41;7.10;99.90
52543;DHT22;38449;52.696;6.186;2023-01-30T05:03:07;7.10;99.90
52543;DHT22;38449;52.696;6.186;2023-01-30T05:05:32;7.10;99.90
52543;DHT22;38449;52.696;6.186;2023-01-30T05:07:58;7.00;99.90
52543;DHT22;38449;52.696;6.186;2023-01-30T05:10:24;6.90;99.90
52543;DHT22;38449;52.696;6.186;2023-01-30T05:12:50;6.90;99.90
52543;DHT22;38449;52.696;6.186;2023-01-30T05:15:16;6.90;99.90
52543;DHT22;38449;52.696;6.186;2023-01-30T05:17:41;6.90;99.90
52543;DHT22;38449;52.696;6.186;2023-01-30T05:20:09;6.80;99.90
52543;DHT22;38449;52.696;6.186;2023-01-30T05:22:36;6.80;99.90
52543;DHT22;38449;52.696;6.186;2023-01-30T05:25:02;6.80;99.90
52543;DHT22;38449;52.696;6.186;2023-01-30T05:27:28;6.90;99.90
52543;DHT22;38449;52.696;6.186;2023-01-30T05:29:53;6.70;99.90
52543;DHT22;38449;52.696;6.186;2023-01-30T05:32:19;6.70;99.90
52543;DHT22;38449;52.696;6.186;2023-01-30T05:34:46;6.70;99.90
52543;DHT22;38449;52.696;6.186;2023-01-30T05:37:12;6.70;99.90
52543;DHT22;38449;52.696;6.186;2023-01-30T05:39:38;6.70;99.90
52543;DHT22;38449;52.696;6.186;2023-01-30T05:42:04;6.50;99.90
52543;DHT22;38449;52.696;6.186;2023-01-30T05:44:30;6.50;99.90
52543;DHT22;38449;52.696;6.186;2023-01-30T05:46:56;6.50;99.90
52543;DHT22;38449;52.696;6.186;2023-01-30T05:49:22;6.40;99.90
52543;DHT22;38449;52.696;6.186;2023-01-30T05:51:48;6.40;99.90
52543;DHT22;38449;52.696;6.186;2023-01-30T05:54:14;6.30;99.90
52543;DHT22;38449;52.696;6.186;2023-01-30T05:56:39;6.30;99.90
52543;DHT22;38449;52.696;6.186;2023-01-30T05:59:05;6.20;99.90
52543;DHT22;38449;52.696;6.186;2023-01-30T06:01:30;6.20;99.90
52543;DHT22;38449;52.696;6.186;2023-01-30T06:03:57;6.20;99.90
52543;DHT22;38449;52.696;6.186;2023-01-30T06:06:23;6.20;99.90
52543;DHT22;38449;52.696;6.186;2023-01-30T06:08:55;6.30;99.90
52543;DHT22;38449;52.696;6.186;2023-01-30T06:11:22;6.20;99.90
52543;DHT22;38449;52.696;6.186;2023-01-30T06:13:47;6.10;99.90
52543;DHT22;38449;52.696;6.186;2023-01-30T06:16:14;6.10;99.90
52543;DHT22;38449;52.696;6.186;2023-01-30T06:18:41;6.20;99.90
52543;DHT22;38449;52.696;6.186;2023-01-30T06:21:07;6.10;99.90
52543;DHT22;38449;52.696;6.186;2023-01-30T06:23:33;6.00;99.90
52543;DHT22;38449;52.696;6.186;2023-01-30T06:25:59;5.90;99.90
52543;DHT22;38449;52.696;6.186;2023-01-30T06:28:25;5.90;99.90
52543;DHT22;38449;52.696;6.186;2023-01-30T06:30:51;6.00;99.90
52543;DHT22;38449;52.696;6.186;2023-01-30T06:33:17;5.90;99.90
52543;DHT22;38449;52.696;6.186;2023-01-30T06:35:43;6.00;99.90
52543;DHT22;38449;52.696;6.186;2023-01-30T06:38:09;6.00;99.90
52543;DHT22;38449;52.696;6.186;2023-01-30T06:40:36;6.00;99.90
52543;DHT22;38449;52.696;6.186;2023-01-30T06:43:02;6.00;99.90
52543;DHT22;38449;52.696;6.186;2023-01-30T06:45:28;6.00;99.90
52543;DHT22;38449;52.696;6.186;2023-01-30T06:47:54;6.00;99.90
52543;DHT22;38449;52.696;6.186;2023-01-30T06:50:22;6.00;99.90
52543;DHT22;38449;52.696;6.186;2023-01-30T06:52:49;5.90;99.90
52543;DHT22;38449;52.696;6.186;2023-01-30T06:55:17;5.90;99.90
52543;DHT22;38449;52.696;6.186;2023-01-30T06:57:44;5.90;99.90
52543;DHT22;38449;52.696;6.186;2023-01-30T07:00:14;5.90;99.90
52543;DHT22;38449;52.696;6.186;2023-01-30T07:02:40;5.80;99.90
52543;DHT22;38449;52.696;6.186;2023-01-30T07:05:07;5.90;99.90
52543;DHT22;38449;52.696;6.186;2023-01-30T07:07:33;6.00;99.90
52543;DHT22;38449;52.696;6.186;2023-01-30T07:09:59;5.90;99.90
52543;DHT22;38449;52.696;6.186;2023-01-30T07:12:26;5.90;99.90
52543;DHT22;38449;52.696;6.186;2023-01-30T07:14:57;5.90;99.90
52543;DHT22;38449;52.696;6.186;2023-01-30T07:17:23;5.80;99.90
52543;DHT22;38449;52.696;6.186;2023-01-30T07:19:55;5.80;99.90
52543;DHT22;38449;52.696;6.186;2023-01-30T07:22:20;5.90;99.90
52543;DHT22;38449;52.696;6.186;2023-01-30T07:24:55;5.80;99.90
52543;DHT22;38449;52.696;6.186;2023-01-30T07:27:22;5.90;99.90
52543;DHT22;38449;52.696;6.186;2023-01-30T07:29:47;5.90;99.90
52543;DHT22;38449;52.696;6.186;2023-01-30T07:32:15;6.00;99.90
52543;DHT22;38449;52.696;6.186;2023-01-30T07:34:42;6.10;99.90
52543;DHT22;38449;52.696;6.186;2023-01-30T07:37:08;6.00;99.90
52543;DHT22;38449;52.696;6.186;2023-01-30T07:39:33;6.00;99.90
52543;DHT22;38449;52.696;6.186;2023-01-30T07:42:00;6.00;99.90
52543;DHT22;38449;52.696;6.186;2023-01-30T07:44:27;6.00;99.90
52543;DHT22;38449;52.696;6.186;2023-01-30T07:46:53;6.00;99.90
52543;DHT22;38449;52.696;6.186;2023-01-30T07:49:18;6.00;99.90
52543;DHT22;38449;52.696;6.186;2023-01-30T07:51:44;6.00;99.90
52543;DHT22;38449;52.696;6.186;2023-01-30T07:54:10;6.10;99.90
52543;DHT22;38449;52.696;6.186;2023-01-30T07:56:35;6.10;99.90
52543;DHT22;38449;52.696;6.186;2023-01-30T07:59:01;6.20;99.90
52543;DHT22;38449;52.696;6.186;2023-01-30T08:01:27;6.30;99.90
52543;DHT22;38449;52.696;6.186;2023-01-30T08:03:52;6.30;99.90
52543;DHT22;38449;52.696;6.186;2023-01-30T08:06:18;6.40;99.90
52543;DHT22;38449;52.696;6.186;2023-01-30T08:08:43;6.40;99.90
52543;DHT22;38449;52.696;6.186;2023-01-30T08:11:09;6.50;99.90
52543;DHT22;38449;52.696;6.186;2023-01-30T08:13:35;6.50;99.90
52543;DHT22;38449;52.696;6.186;2023-01-30T08:16:02;6.50;99.90
52543;DHT22;38449;52.696;6.186;2023-01-30T08:18:28;6.50;99.90
52543;DHT22;38449;52.696;6.186;2023-01-30T08:20:58;6.40;99.90
52543;DHT22;38449;52.696;6.186;2023-01-30T08:23:24;6.40;99.90
52543;DHT22;38449;52.696;6.186;2023-01-30T08:25:54;6.40;99.90
52543;DHT22;38449;52.696;6.186;2023-01-30T08:28:19;6.50;99.90
52543;DHT22;38449;52.696;6.186;2023-01-30T08:30:45;6.50;99.90
52543;DHT22;38449;52.696;6.186;2023-01-30T08:33:11;6.50;99.90
52543;DHT22;38449;52.696;6.186;2023-01-30T08:35:36;6.50;99.90
52543;DHT22;38449;52.696;6.186;2023-01-30T08:38:05;6.50;99.90
52543;DHT22;38449;52.696;6.186;2023-01-30T08:40:31;6.50;99.90
52543;DHT22;38449;52.696;6.186;2023-01-30T08:42:58;6.50;99.90
52543;DHT22;38449;52.696;6.186;2023-01-30T08:45:23;6.60;99.90
52543;DHT22;38449;52.696;6.186;2023-01-30T08:47:50;6.60;99.90
52543;DHT22;38449;52.696;6.186;2023-01-30T08:50:16;6.70;99.90
52543;DHT22;38449;52.696;6.186;2023-01-30T08:52:42;6.70;99.90
52543;DHT22;38449;52.696;6.186;2023-01-30T08:55:07;6.70;99.90
52543;DHT22;38449;52.696;6.186;2023-01-30T08:57:34;6.70;99.90
52543;DHT22;38449;52.696;6.186;2023-01-30T08:59:59;6.80;99.90
52543;DHT22;38449;52.696;6.186;2023-01-30T09:02:25;6.70;99.90
52543;DHT22;38449;52.696;6.186;2023-01-30T09:04:50;6.80;99.90
52543;DHT22;38449;52.696;6.186;2023-01-30T09:07:16;6.70;99.90
52543;DHT22;38449;52.696;6.186;2023-01-30T09:09:42;6.80;99.90
52543;DHT22;38449;52.696;6.186;2023-01-30T09:12:07;6.80;99.90
52543;DHT22;38449;52.696;6.186;2023-01-30T09:14:33;6.80;99.90
52543;DHT22;38449;52.696;6.186;2023-01-30T09:16:59;6.90;99.90
52543;DHT22;38449;52.696;6.186;2023-01-30T09:19:26;6.90;99.90
52543;DHT22;38449;52.696;6.186;2023-01-30T09:21:53;7.00;99.90
52543;DHT22;38449;52.696;6.186;2023-01-30T09:24:20;7.00;99.90
52543;DHT22;38449;52.696;6.186;2023-01-30T09:26:53;7.00;99.90
52543;DHT22;38449;52.696;6.186;2023-01-30T09:29:22;7.00;99.90
52543;DHT22;38449;52.696;6.186;2023-01-30T09:31:48;7.00;99.90
52543;DHT22;38449;52.696;6.186;2023-01-30T09:34:13;7.00;99.90
52543;DHT22;38449;52.696;6.186;2023-01-30T09:36:39;7.00;99.90
52543;DHT22;38449;52.696;6.186;2023-01-30T09:39:05;7.00;99.90
52543;DHT22;38449;52.696;6.186;2023-01-30T09:41:58;7.10;99.90
52543;DHT22;38449;52.696;6.186;2023-01-30T09:44:56;7.10;99.90
52543;DHT22;38449;52.696;6.186;2023-01-30T09:47:32;7.10;99.90
52543;DHT22;38449;52.696;6.186;2023-01-30T09:53:30;7.00;99.90
52543;DHT22;38449;52.696;6.186;2023-01-30T09:55:58;7.10;99.90
52543;DHT22;38449;52.696;6.186;2023-01-30T09:58:26;7.10;99.90
52543;DHT22;38449;52.696;6.186;2023-01-30T10:01:01;7.10;99.90
52543;DHT22;38449;52.696;6.186;2023-01-30T10:03:34;7.30;99.90
52543;DHT22;38449;52.696;6.186;2023-01-30T10:06:05;7.50;99.90
52543;DHT22;38449;52.696;6.186;2023-01-30T10:08:45;7.50;99.90
52543;DHT22;38449;52.696;6.186;2023-01-30T10:11:59;7.40;99.90
52543;DHT22;38449;52.696;6.186;2023-01-30T10:20:13;7.40;99.90
52543;DHT22;38449;52.696;6.186;2023-01-30T10:23:14;7.40;99.90
52543;DHT22;38449;52.696;6.186;2023-01-30T10:25:52;7.50;99.90
52543;DHT22;38449;52.696;6.186;2023-01-30T10:28:36;7.60;99.90
52543;DHT22;38449;52.696;6.186;2023-01-30T10:31:09;7.70;99.90
52543;DHT22;38449;52.696;6.186;2023-01-30T10:33:42;7.70;99.90
52543;DHT22;38449;52.696;6.186;2023-01-30T10:36:41;7.90;99.90
52543;DHT22;38449;52.696;6.186;2023-01-30T10:42:17;7.90;99.90
52543;DHT22;38449;52.696;6.186;2023-01-30T10:44:47;7.90;99.90
52543;DHT22;38449;52.696;6.186;2023-01-30T10:50:05;7.90;99.90
52543;DHT22;38449;52.696;6.186;2023-01-30T10:53:10;7.90;99.90
52543;DHT22;38449;52.696;6.186;2023-01-30T10:55:46;7.90;99.90
52543;DHT22;38449;52.696;6.186;2023-01-30T11:01:04;8.00;99.90
52543;DHT22;38449;52.696;6.186;2023-01-30T11:03:36;8.10;99.90
52543;DHT22;38449;52.696;6.186;2023-01-30T11:06:06;8.10;99.90
52543;DHT22;38449;52.696;6.186;2023-01-30T11:08:35;8.00;99.90
52543;DHT22;38449;52.696;6.186;2023-01-30T11:11:23;8.00;99.90
52543;DHT22;38449;52.696;6.186;2023-01-30T11:13:49;8.10;99.90
52543;DHT22;38449;52.696;6.186;2023-01-30T11:16:16;8.10;99.90
52543;DHT22;38449;52.696;6.186;2023-01-30T11:18:47;8.30;99.90
52543;DHT22;38449;52.696;6.186;2023-01-30T11:21:22;8.40;99.90
52543;DHT22;38449;52.696;6.186;2023-01-30T11:23:49;8.40;99.90
52543;DHT22;38449;52.696;6.186;2023-01-30T11:26:31;8.30;99.90
52543;DHT22;38449;52.696;6.186;2023-01-30T11:28:57;8.30;99.90
52543;DHT22;38449;52.696;6.186;2023-01-30T11:31:28;8.30;99.90
52543;DHT22;38449;52.696;6.186;2023-01-30T11:34:23;8.30;99.90
52543;DHT22;38449;52.696;6.186;2023-01-30T11:36:50;8.30;99.90
52543;DHT22;38449;52.696;6.186;2023-01-30T11:41:57;8.30;99.90
52543;DHT22;38449;52.696;6.186;2023-01-30T11:46:53;8.50;99.90
52543;DHT22;38449;52.696;6.186;2023-01-30T11:49:20;8.50;99.90
52543;DHT22;38449;52.696;6.186;2023-01-30T11:51:47;8.50;99.90
52543;DHT22;38449;52.696;6.186;2023-01-30T11:54:32;8.50;99.90
52543;DHT22;38449;52.696;6.186;2023-01-30T11:57:02;8.40;99.90
52543;DHT22;38449;52.696;6.186;2023-01-30T12:00:17;8.40;99.90
52543;DHT22;38449;52.696;6.186;2023-01-30T12:02:45;8.40;99.90
52543;DHT22;38449;52.696;6.186;2023-01-30T12:07:53;8.50;99.90
52543;DHT22;38449;52.696;6.186;2023-01-30T12:10:40;8.60;99.90
52543;DHT22;38449;52.696;6.186;2023-01-30T12:13:20;8.50;99.90
52543;DHT22;38449;52.696;6.186;2023-01-30T12:16:01;8.40;99.90
52543;DHT22;38449;52.696;6.186;2023-01-30T12:18:33;8.50;99.90
52543;DHT22;38449;52.696;6.186;2023-01-30T12:21:08;8.40;99.90
52543;DHT22;38449;52.696;6.186;2023-01-30T12:23:51;8.40;99.90
52543;DHT22;38449;52.696;6.186;2023-01-30T12:26:27;8.40;99.90
52543;DHT22;38449;52.696;6.186;2023-01-30T12:29:21;8.20;99.90
52543;DHT22;38449;52.696;6.186;2023-01-30T12:32:05;8.00;99.90
52543;DHT22;38449;52.696;6.186;2023-01-30T12:34:32;7.60;99.90
52543;DHT22;38449;52.696;6.186;2023-01-30T12:37:39;7.20;99.90
52543;DHT22;38449;52.696;6.186;2023-01-30T12:40:24;7.00;99.90
52543;DHT22;38449;52.696;6.186;2023-01-30T12:43:14;6.90;99.90
52543;DHT22;38449;52.696;6.186;2023-01-30T12:48:29;6.60;99.90
52543;DHT22;38449;52.696;6.186;2023-01-30T12:51:16;6.70;99.90
52543;DHT22;38449;52.696;6.186;2023-01-30T12:56:58;6.90;99.90
52543;DHT22;38449;52.696;6.186;2023-01-30T12:59:42;7.00;99.90
52543;DHT22;38449;52.696;6.186;2023-01-30T13:02:26;7.10;99.90
52543;DHT22;38449;52.696;6.186;2023-01-30T13:05:28;7.20;99.90
52543;DHT22;38449;52.696;6.186;2023-01-30T13:10:55;7.30;99.90
52543;DHT22;38449;52.696;6.186;2023-01-30T13:13:50;7.30;99.90
52543;DHT22;38449;52.696;6.186;2023-01-30T13:16:28;7.50;99.90
52543;DHT22;38449;52.696;6.186;2023-01-30T13:19:05;7.60;99.90
52543;DHT22;38449;52.696;6.186;2023-01-30T13:21:55;7.70;99.90
52543;DHT22;38449;52.696;6.186;2023-01-30T13:24:24;7.70;99.90
52543;DHT22;38449;52.696;6.186;2023-01-30T13:26:57;7.70;99.90
52543;DHT22;38449;52.696;6.186;2023-01-30T13:29:28;7.70;99.90
52543;DHT22;38449;52.696;6.186;2023-01-30T13:31:57;7.70;99.90
52543;DHT22;38449;52.696;6.186;2023-01-30T13:34:40;7.80;99.90
52543;DHT22;38449;52.696;6.186;2023-01-30T13:37:10;7.90;99.90
52543;DHT22;38449;52.696;6.186;2023-01-30T13:40:02;7.90;99.90
52543;DHT22;38449;52.696;6.186;2023-01-30T13:45:29;7.90;99.90
52543;DHT22;38449;52.696;6.186;2023-01-30T13:54:03;8.10;99.90
52543;DHT22;38449;52.696;6.186;2023-01-30T13:56:37;8.10;99.90
52543;DHT22;38449;52.696;6.186;2023-01-30T14:07:28;8.10;99.90
52543;DHT22;38449;52.696;6.186;2023-01-30T14:10:14;8.10;99.90
52543;DHT22;38449;52.696;6.186;2023-01-30T14:12:49;8.00;99.90
52543;DHT22;38449;52.696;6.186;2023-01-30T14:20:25;8.00;99.90
52543;DHT22;38449;52.696;6.186;2023-01-30T14:22:56;8.10;99.90
52543;DHT22;38449;52.696;6.186;2023-01-30T14:33:31;8.20;99.90
52543;DHT22;38449;52.696;6.186;2023-01-30T14:38:33;8.10;99.90
52543;DHT22;38449;52.696;6.186;2023-01-30T14:45:53;7.90;99.90
52543;DHT22;38449;52.696;6.186;2023-01-30T14:48:53;7.90;99.90
52543;DHT22;38449;52.696;6.186;2023-01-30T14:56:56;7.80;99.90
52543;DHT22;38449;52.696;6.186;2023-01-30T14:59:29;7.80;99.90
52543;DHT22;38449;52.696;6.186;2023-01-30T15:07:30;7.90;99.90
52543;DHT22;38449;52.696;6.186;2023-01-30T15:15:37;7.90;99.90
52543;DHT22;38449;52.696;6.186;2023-01-30T15:32:23;7.50;99.90
52543;DHT22;38449;52.696;6.186;2023-01-30T15:34:51;7.40;99.90
52543;DHT22;38449;52.696;6.186;2023-01-30T15:50:50;7.20;99.90
52543;DHT22;38449;52.696;6.186;2023-01-30T15:53:27;7.10;99.90
52543;DHT22;38449;52.696;6.186;2023-01-30T15:55:53;7.10;99.90
52543;DHT22;38449;52.696;6.186;2023-01-30T15:58:21;7.10;99.90
52543;DHT22;38449;52.696;6.186;2023-01-30T16:00:48;7.00;99.90
52543;DHT22;38449;52.696;6.186;2023-01-30T16:03:25;7.00;99.90
52543;DHT22;38449;52.696;6.186;2023-01-30T16:05:54;6.90;99.90
52543;DHT22;38449;52.696;6.186;2023-01-30T16:08:25;6.90;99.90
52543;DHT22;38449;52.696;6.186;2023-01-30T16:10:51;6.90;99.90
52543;DHT22;38449;52.696;6.186;2023-01-30T16:13:18;6.90;99.90
52543;DHT22;38449;52.696;6.186;2023-01-30T16:15:52;6.80;99.90
52543;DHT22;38449;52.696;6.186;2023-01-30T16:20:56;6.70;99.90
52543;DHT22;38449;52.696;6.186;2023-01-30T16:25:53;6.60;99.90
52543;DHT22;38449;52.696;6.186;2023-01-30T16:28:21;6.60;99.90
52543;DHT22;38449;52.696;6.186;2023-01-30T16:30:47;6.50;99.90
52543;DHT22;38449;52.696;6.186;2023-01-30T16:33:16;6.60;99.90
52543;DHT22;38449;52.696;6.186;2023-01-30T16:35:47;6.50;99.90
52543;DHT22;38449;52.696;6.186;2023-01-30T16:38:34;6.50;99.90
52543;DHT22;38449;52.696;6.186;2023-01-30T16:41:00;6.50;99.90
52543;DHT22;38449;52.696;6.186;2023-01-30T16:43:26;6.40;99.90
52543;DHT22;38449;52.696;6.186;2023-01-30T16:53:27;6.30;99.90
52543;DHT22;38449;52.696;6.186;2023-01-30T16:56:08;6.30;99.90
52543;DHT22;38449;52.696;6.186;2023-01-30T16:58:36;6.30;99.90
52543;DHT22;38449;52.696;6.186;2023-01-30T17:01:04;6.30;99.90
52543;DHT22;38449;52.696;6.186;2023-01-30T17:03:32;6.70;99.90
52543;DHT22;38449;52.696;6.186;2023-01-30T17:06:02;6.90;99.90
52543;DHT22;38449;52.696;6.186;2023-01-30T17:08:46;7.00;99.90
52543;DHT22;38449;52.696;6.186;2023-01-30T17:16:39;7.40;99.90
52543;DHT22;38449;52.696;6.186;2023-01-30T17:19:06;7.40;99.90
52543;DHT22;38449;52.696;6.186;2023-01-30T17:21:42;7.40;99.90
52543;DHT22;38449;52.696;6.186;2023-01-30T17:24:15;7.40;99.90
52543;DHT22;38449;52.696;6.186;2023-01-30T17:26:41;7.40;99.90
52543;DHT22;38449;52.696;6.186;2023-01-30T17:29:10;7.30;99.90
52543;DHT22;38449;52.696;6.186;2023-01-30T17:31:36;7.10;99.90
52543;DHT22;38449;52.696;6.186;2023-01-30T17:34:01;7.00;99.90
52543;DHT22;38449;52.696;6.186;2023-01-30T17:36:29;6.90;99.90
52543;DHT22;38449;52.696;6.186;2023-01-30T17:38:57;6.80;99.90
52543;DHT22;38449;52.696;6.186;2023-01-30T17:41:25;6.70;99.90
52543;DHT22;38449;52.696;6.186;2023-01-30T17:43:53;6.70;99.90
52543;DHT22;38449;52.696;6.186;2023-01-30T17:46:32;6.60;99.90
52543;DHT22;38449;52.696;6.186;2023-01-30T17:48:59;6.60;99.90
52543;DHT22;38449;52.696;6.186;2023-01-30T17:51:25;6.40;99.90
52543;DHT22;38449;52.696;6.186;2023-01-30T17:53:50;6.30;99.90
52543;DHT22;38449;52.696;6.186;2023-01-30T17:56:30;6.10;99.90
52543;DHT22;38449;52.696;6.186;2023-01-30T17:58:57;6.00;99.90
52543;DHT22;38449;52.696;6.186;2023-01-30T18:01:22;6.00;99.90
52543;DHT22;38449;52.696;6.186;2023-01-30T18:03:48;5.90;99.90
52543;DHT22;38449;52.696;6.186;2023-01-30T18:06:14;5.80;99.90
52543;DHT22;38449;52.696;6.186;2023-01-30T18:08:40;5.80;99.90
52543;DHT22;38449;52.696;6.186;2023-01-30T18:11:07;5.70;99.90
52543;DHT22;38449;52.696;6.186;2023-01-30T18:13:42;5.70;99.90
52543;DHT22;38449;52.696;6.186;2023-01-30T18:16:17;5.80;99.90
52543;DHT22;38449;52.696;6.186;2023-01-30T18:18:44;5.80;99.90
52543;DHT22;38449;52.696;6.186;2023-01-30T18:21:09;5.70;99.90
52543;DHT22;38449;52.696;6.186;2023-01-30T18:23:35;5.70;99.90
52543;DHT22;38449;52.696;6.186;2023-01-30T18:26:02;5.70;99.90
52543;DHT22;38449;52.696;6.186;2023-01-30T18:28:28;5.70;99.90
52543;DHT22;38449;52.696;6.186;2023-01-30T18:30:53;5.70;99.90
52543;DHT22;38449;52.696;6.186;2023-01-30T18:33:19;5.60;99.90
52543;DHT22;38449;52.696;6.186;2023-01-30T18:35:44;5.60;99.90
52543;DHT22;38449;52.696;6.186;2023-01-30T18:38:10;5.60;99.90
52543;DHT22;38449;52.696;6.186;2023-01-30T18:40:37;5.70;99.90
52543;DHT22;38449;52.696;6.186;2023-01-30T18:43:04;5.60;99.90